Time;durP1;ratioP1;P1;durP2;ratioP2;P2;SDS_P1;SDS_P2;PMS_P1;PMS_P2;Temp;Humidity;BMP_temperature;BMP_pressure;BME280_temperature;BME280_humidity;BME280_pressure;Samples;Min_cycle;Max_cycle;Signal;HPM_P1;HPM_P2
2023/08/16 00:01:33;;;;;;;2.35;1.23;;;;;;;19.83;71.08;100167.97;10475824;28;20043;-60
2023/08/16 00:06:35;;;;;;;1.95;1.30;;;;;;;19.79;70.93;100159.44;10457878;28;20040;-59
2023/08/16 00:11:37;;;;;;;14.32;2.13;;;;;;;19.72;71.30;100161.00;10475802;28;20044;-59
2023/08/16 00:16:40;;;;;;;5.03;1.55;;;;;;;19.64;71.36;100154.72;10475958;28;20062;-60
2023/08/16 00:21:42;;;;;;;2.30;1.38;;;;;;;19.66;71.49;100164.22;10475371;28;20390;-59
2023/08/16 00:26:44;;;;;;;29.30;2.45;;;;;;;19.64;71.18;100152.09;10475373;28;20072;-59
2023/08/16 00:31:46;;;;;;;2.35;1.40;;;;;;;19.61;71.29;100158.50;10475331;28;20056;-59
2023/08/16 00:36:48;;;;;;;2.90;1.60;;;;;;;19.64;71.47;100150.28;10475432;28;20151;-59
2023/08/16 00:41:50;;;;;;;4.35;1.33;;;;;;;19.68;71.08;100153.47;10474731;28;20058;-59
2023/08/16 00:46:53;;;;;;;2.92;1.30;;;;;;;19.74;71.10;100150.22;10456877;28;20139;-59
2023/08/16 00:51:58;;;;;;;2.55;1.58;;;;;;;19.73;70.86;100135.28;10489781;28;20044;-59
2023/08/16 00:57:00;;;;;;;2.60;1.33;;;;;;;19.72;71.04;100138.94;10474651;28;20477;-59
2023/08/16 01:02:03;;;;;;;4.88;1.20;;;;;;;19.54;70.96;100135.34;10475060;28;20075;-59
2023/08/16 01:07:05;;;;;;;4.60;1.48;;;;;;;19.50;71.33;100136.63;10439787;28;20055;-59
2023/08/16 01:12:31;;;;;;;19.65;2.35;;;;;;;19.56;71.28;100144.00;10440381;28;20511;-59
2023/08/16 01:17:33;;;;;;;9.75;2.25;;;;;;;19.54;71.63;100144.16;10462188;28;20206;-59
2023/08/16 01:22:47;;;;;;;8.23;2.00;;;;;;;19.61;71.65;100139.94;10481498;28;20091;-59
2023/08/16 01:27:51;;;;;;;5.50;1.30;;;;;;;19.54;71.37;100140.66;10479551;28;20347;-59
2023/08/16 01:32:53;;;;;;;31.08;2.30;;;;;;;19.61;71.17;100152.34;10481740;28;20131;-59
2023/08/16 01:37:57;;;;;;;2.83;1.38;;;;;;;19.69;71.21;100165.75;10479883;28;20044;-59
2023/08/16 01:43:00;;;;;;;7.82;2.10;;;;;;;19.55;71.44;100164.38;10481608;28;20550;-59
2023/08/16 01:48:04;;;;;;;10.90;1.70;;;;;;;19.53;71.65;100160.19;10481009;28;20055;-59
2023/08/16 01:53:06;;;;;;;6.28;2.10;;;;;;;19.60;71.64;100166.63;10462606;28;20071;-59
2023/08/16 01:58:08;;;;;;;7.90;2.20;;;;;;;19.59;71.47;100175.53;10480815;28;20285;-59
2023/08/16 02:03:10;;;;;;;5.38;1.75;;;;;;;19.57;71.58;100166.88;10462186;28;20064;-59
2023/08/16 02:08:12;;;;;;;4.90;1.80;;;;;;;19.65;71.44;100172.31;10461646;28;20041;-60
2023/08/16 02:13:14;;;;;;;4.75;1.70;;;;;;;19.69;71.17;100171.88;10462007;28;20140;-59
2023/08/16 02:18:16;;;;;;;8.15;2.22;;;;;;;19.69;71.43;100158.63;10478561;28;20127;-59
2023/08/16 02:23:18;;;;;;;19.63;1.80;;;;;;;19.73;71.53;100164.47;10461855;28;20110;-59
2023/08/16 02:28:20;;;;;;;8.98;2.10;;;;;;;19.73;71.15;100161.81;10477796;28;20123;-59
2023/08/16 02:33:22;;;;;;;3.83;2.00;;;;;;;19.73;71.39;100151.19;10479240;28;20115;-59
2023/08/16 02:38:24;;;;;;;6.43;2.13;;;;;;;19.72;71.22;100157.50;10478492;28;20164;-60
2023/08/16 02:43:28;;;;;;;13.23;3.08;;;;;;;19.58;71.10;100156.16;10493787;28;20201;-60
2023/08/16 02:48:30;;;;;;;7.05;2.67;;;;;;;19.55;71.21;100153.78;10478336;28;20044;-59
2023/08/16 02:53:32;;;;;;;9.27;3.00;;;;;;;19.59;71.48;100149.84;10478349;28;20471;-60
2023/08/16 02:58:34;;;;;;;6.90;2.60;;;;;;;19.61;70.95;100155.84;10478237;28;20126;-59
2023/08/16 03:03:36;;;;;;;5.35;2.25;;;;;;;19.55;70.83;100152.94;10459980;28;20052;-59
2023/08/16 03:08:38;;;;;;;5.90;2.53;;;;;;;19.49;71.24;100157.00;10475949;28;20527;-59
2023/08/16 03:13:40;;;;;;;8.07;2.70;;;;;;;19.32;71.63;100161.22;10459562;28;20051;-59
2023/08/16 03:18:42;;;;;;;10.27;2.85;;;;;;;19.32;71.66;100158.56;10477650;28;20052;-59
2023/08/16 03:23:44;;;;;;;7.18;2.45;;;;;;;19.39;71.53;100150.88;10477039;28;20055;-59
2023/08/16 03:28:47;;;;;;;21.23;3.25;;;;;;;19.39;71.29;100158.84;10459128;28;20493;-59
2023/08/16 03:33:49;;;;;;;15.32;2.70;;;;;;;19.38;71.24;100144.72;10458797;28;20048;-59
2023/08/16 03:38:52;;;;;;;8.82;2.53;;;;;;;19.29;71.45;100145.59;10475824;28;20048;-59
2023/08/16 03:43:54;;;;;;;13.20;2.42;;;;;;;19.32;71.41;100147.94;10458740;28;20052;-59
2023/08/16 03:48:56;;;;;;;7.32;2.60;;;;;;;19.41;71.45;100152.41;10457895;28;20067;-59
2023/08/16 03:54:00;;;;;;;4.70;2.25;;;;;;;19.41;71.50;100160.38;10457712;28;20041;-59
2023/08/16 03:59:02;;;;;;;8.18;2.50;;;;;;;19.40;71.55;100156.03;10475920;28;20072;-59
2023/08/16 04:04:04;;;;;;;10.75;2.67;;;;;;;19.36;71.37;100136.06;10475991;28;20055;-60
2023/08/16 04:09:06;;;;;;;9.25;2.78;;;;;;;19.21;71.62;100152.56;10475838;28;20102;-59
2023/08/16 04:14:08;;;;;;;11.98;2.50;;;;;;;19.20;71.64;100151.72;10457785;28;20093;-60
2023/08/16 04:19:10;;;;;;;5.82;2.80;;;;;;;19.13;71.90;100155.94;10475706;28;20139;-59
2023/08/16 04:24:12;;;;;;;11.18;2.40;;;;;;;19.28;71.89;100164.28;10457121;28;20147;-60
2023/08/16 04:29:14;;;;;;;7.88;3.03;;;;;;;19.02;72.12;100168.47;10489624;28;20444;-59
2023/08/16 04:34:16;;;;;;;5.78;2.70;;;;;;;19.16;71.93;100174.22;10441147;28;20362;-59
2023/08/16 04:39:18;;;;;;;6.35;2.45;;;;;;;19.26;71.62;100174.19;10475280;28;20036;-58
2023/08/16 04:44:22;;;;;;;4.82;2.53;;;;;;;19.13;71.74;100185.09;10490692;28;20473;-58
2023/08/16 04:49:26;;;;;;;3.80;2.17;;;;;;;19.30;71.35;100187.03;10475910;28;20048;-59
2023/08/16 04:54:29;;;;;;;3.58;2.08;;;;;;;19.35;71.01;100197.22;10483331;28;20049;-58
2023/08/16 04:59:31;;;;;;;4.35;2.35;;;;;;;19.46;71.04;100197.91;10482610;28;20505;-59
2023/08/16 05:04:33;;;;;;;4.10;2.03;;;;;;;19.64;70.60;100205.16;10464235;28;20040;-59
2023/08/16 05:09:36;;;;;;;3.92;2.30;;;;;;;19.63;70.42;100208.75;10464193;28;20833;-59
2023/08/16 05:14:38;;;;;;;11.00;2.88;;;;;;;19.57;70.57;100193.41;10464530;28;20161;-59
2023/08/16 05:19:40;;;;;;;15.07;2.20;;;;;;;19.40;70.79;100198.47;10480560;28;20109;-59
2023/08/16 05:24:42;;;;;;;11.50;2.83;;;;;;;19.35;71.05;100199.88;10481736;28;20500;-59
2023/08/16 05:29:44;;;;;;;9.35;2.28;;;;;;;19.26;71.42;100192.75;10481892;28;20749;-58
2023/08/16 05:34:46;;;;;;;7.07;2.08;;;;;;;19.51;71.02;100186.88;10481244;28;20080;-59
2023/08/16 05:39:49;;;;;;;6.40;2.08;;;;;;;19.55;71.18;100200.69;10481299;28;20157;-59
2023/08/16 05:44:51;;;;;;;17.40;3.50;;;;;;;19.57;70.98;100188.94;10481105;28;20481;-59
2023/08/16 05:49:53;;;;;;;8.50;2.80;;;;;;;19.43;71.07;100189.41;10480840;28;20174;-59
2023/08/16 05:54:55;;;;;;;5.75;2.50;;;;;;;19.48;71.21;100188.97;10480764;28;20102;-59
2023/08/16 05:59:57;;;;;;;6.20;2.65;;;;;;;19.74;70.66;100196.19;10480152;28;20405;-59
2023/08/16 06:04:59;;;;;;;70.38;3.53;;;;;;;19.81;70.59;100212.34;10480129;28;20051;-59
2023/08/16 06:10:03;;;;;;;12.55;3.20;;;;;;;19.77;70.39;100221.59;10480115;28;20047;-59
2023/08/16 06:15:11;;;;;;;7.30;2.38;;;;;;;19.68;70.69;100218.00;10479973;28;20370;-59
2023/08/16 06:20:14;;;;;;;4.80;2.78;;;;;;;19.58;70.77;100208.38;10479724;28;20138;-60
2023/08/16 06:25:16;;;;;;;4.07;2.20;;;;;;;19.56;70.93;100208.53;10479039;28;20501;-60
2023/08/16 06:30:18;;;;;;;3.95;1.98;;;;;;;19.52;70.76;100212.44;10461516;28;20049;-60
2023/08/16 06:35:20;;;;;;;4.78;2.33;;;;;;;19.44;71.36;100205.16;10460888;28;20048;-60
2023/08/16 06:40:22;;;;;;;3.65;1.90;;;;;;;19.59;71.13;100202.91;10460872;28;20942;-60
2023/08/16 06:45:24;;;;;;;4.20;1.85;;;;;;;19.75;70.79;100207.63;10478487;28;20040;-60
2023/08/16 06:50:26;;;;;;;5.68;2.08;;;;;;;19.85;70.55;100197.84;10478154;28;20099;-60
2023/08/16 06:55:28;;;;;;;4.93;2.20;;;;;;;19.93;70.54;100195.34;10478511;28;20040;-60
2023/08/16 07:00:31;;;;;;;11.30;2.00;;;;;;;20.04;70.27;100198.63;10478115;28;20447;-58
2023/08/16 07:05:33;;;;;;;4.63;1.88;;;;;;;20.25;70.24;100209.84;10477689;28;20056;-58
2023/08/16 07:10:35;;;;;;;7.95;2.15;;;;;;;20.18;70.01;100213.25;10477619;28;20518;-58
2023/08/16 07:15:37;;;;;;;6.75;2.75;;;;;;;20.17;70.31;100198.31;10476447;28;20131;-58
2023/08/16 07:20:39;;;;;;;4.50;2.55;;;;;;;20.41;69.64;100185.34;10477255;28;20044;-58
2023/08/16 07:25:42;;;;;;;5.82;2.25;;;;;;;20.81;69.20;100209.72;10476334;28;20059;-58
2023/08/16 07:30:43;;;;;;;5.80;2.60;;;;;;;21.05;68.35;100217.94;10476519;28;20133;-58
2023/08/16 07:35:46;;;;;;;5.25;2.67;;;;;;;21.31;68.03;100217.19;10476296;28;20052;-59
2023/08/16 07:40:48;;;;;;;5.40;2.78;;;;;;;21.68;67.49;100225.88;10477243;28;20055;-59
2023/08/16 07:45:52;;;;;;;5.53;2.63;;;;;;;22.11;66.68;100220.50;10476286;28;20608;-59
2023/08/16 07:50:54;;;;;;;4.65;2.65;;;;;;;22.20;66.27;100232.03;10476169;28;20044;-59
2023/08/16 07:55:56;;;;;;;3.72;2.10;;;;;;;22.12;66.17;100229.31;10458437;28;20059;-60
2023/08/16 08:00:59;;;;;;;6.93;2.40;;;;;;;22.23;65.74;100237.88;10475768;28;20068;-59
2023/08/16 08:06:02;;;;;;;4.30;2.30;;;;;;;22.25;65.13;100243.06;10476018;28;20124;-59
2023/08/16 08:11:07;;;;;;;4.70;2.58;;;;;;;22.32;64.83;100252.06;10475958;28;20131;-59
2023/08/16 08:16:09;;;;;;;3.38;2.08;;;;;;;22.16;65.49;100241.34;10475416;28;20215;-60
2023/08/16 08:21:11;;;;;;;4.70;2.13;;;;;;;22.06;65.28;100256.59;10475598;28;20143;-60
2023/08/16 08:26:13;;;;;;;4.65;2.67;;;;;;;22.00;65.54;100263.34;10463882;28;20052;-59
2023/08/16 08:31:15;;;;;;;3.88;2.08;;;;;;;21.93;65.65;100278.28;10466113;28;20052;-58
2023/08/16 08:36:17;;;;;;;4.82;2.13;;;;;;;22.10;65.62;100285.44;10483795;28;20512;-60
2023/08/16 08:41:23;;;;;;;3.28;1.80;;;;;;;22.03;65.50;100286.16;10483086;28;20118;-60
2023/08/16 08:46:38;;;;;;;2.95;1.98;;;;;;;22.06;65.44;100275.25;10466735;28;20557;-60
2023/08/16 08:51:41;;;;;;;3.78;1.90;;;;;;;21.85;65.66;100271.06;10464485;28;20488;-60
2023/08/16 08:56:45;;;;;;;5.00;2.05;;;;;;;21.71;65.95;100268.13;10465054;28;20389;-60
2023/08/16 09:01:49;;;;;;;3.88;2.13;;;;;;;21.53;66.15;100256.66;10464985;28;20135;-60
2023/08/16 09:06:53;;;;;;;3.17;1.80;;;;;;;21.58;66.35;100260.53;10482596;28;20040;-60
2023/08/16 09:11:55;;;;;;;3.38;2.00;;;;;;;21.82;66.59;100266.03;10482263;28;20072;-60
2023/08/16 09:16:57;;;;;;;3.65;2.30;;;;;;;22.14;66.20;100272.63;10496719;28;20495;-60
2023/08/16 09:21:59;;;;;;;4.30;2.30;;;;;;;22.69;65.15;100266.75;10481764;28;20060;-60
2023/08/16 09:27:01;;;;;;;3.80;2.13;;;;;;;23.84;63.16;100259.63;10482005;28;20044;-57
2023/08/16 09:32:06;;;;;;;2.63;1.58;;;;;;;25.11;60.84;100255.88;10482102;28;20043;-58
2023/08/16 09:37:08;;;;;;;3.35;1.92;;;;;;;25.61;59.66;100242.00;10462410;28;20048;-60
2023/08/16 09:42:10;;;;;;;3.63;1.83;;;;;;;25.37;59.02;100248.34;10481056;28;20060;-60
2023/08/16 09:47:13;;;;;;;3.60;2.00;;;;;;;24.46;59.04;100250.00;10481113;28;20068;-61
2023/08/16 09:52:19;;;;;;;2.85;1.80;;;;;;;24.38;60.60;100246.50;10481430;28;20048;-60
2023/08/16 09:57:21;;;;;;;3.92;1.80;;;;;;;24.86;59.58;100246.31;10480847;28;20059;-60
2023/08/16 10:02:26;;;;;;;3.28;1.75;;;;;;;26.02;56.87;100245.16;10480654;28;20055;-60
2023/08/16 10:07:31;;;;;;;4.13;1.98;;;;;;;25.80;56.72;100236.94;10479808;28;20485;-60
2023/08/16 10:12:35;;;;;;;3.08;1.63;;;;;;;25.46;57.08;100227.72;10480205;28;20051;-60
2023/08/16 10:17:42;;;;;;;3.65;1.40;;;;;;;25.92;55.72;100228.47;10479916;28;20462;-60
2023/08/16 10:22:48;;;;;;;3.78;1.90;;;;;;;25.35;56.55;100223.59;10479934;28;20814;-58
2023/08/16 10:27:53;;;;;;;2.65;1.60;;;;;;;24.86;57.50;100231.09;10479225;28;20397;-58
2023/08/16 10:33:13;;;;;;;2.70;1.70;;;;;;;25.02;56.73;100230.16;10478462;28;20047;-60
2023/08/16 10:38:15;;;;;;;2.30;1.40;;;;;;;25.39;56.37;100224.91;10477815;28;20064;-60
2023/08/16 10:43:17;;;;;;;3.58;1.42;;;;;;;26.15;55.18;100219.34;10473046;28;20756;-60
2023/08/16 10:48:22;;;;;;;2.38;1.40;;;;;;;26.88;53.72;100221.13;10474405;28;20539;-60
2023/08/16 10:53:27;;;;;;;3.60;1.70;;;;;;;26.77;53.88;100218.97;10492413;28;20059;-60
2023/08/16 10:58:29;;;;;;;4.18;1.70;;;;;;;26.17;54.52;100211.13;10475764;28;20045;-60
2023/08/16 11:03:33;;;;;;;3.05;1.40;;;;;;;25.89;54.84;100210.91;10478182;28;20151;-60
2023/08/16 11:08:38;;;;;;;2.30;1.55;;;;;;;25.48;55.73;100198.91;10477235;28;20131;-60
2023/08/16 11:13:42;;;;;;;6.53;2.33;;;;;;;25.30;54.93;100183.13;10475288;28;20052;-60
2023/08/16 11:18:44;;;;;;;2.03;1.33;;;;;;;25.42;55.93;100178.22;10476796;28;20044;-60
2023/08/16 11:23:46;;;;;;;3.63;1.27;;;;;;;25.34;55.11;100189.81;10477236;28;20060;-60
2023/08/16 11:28:48;;;;;;;2.28;1.52;;;;;;;25.58;55.45;100181.56;10459193;28;20163;-60
2023/08/16 11:33:50;;;;;;;2.67;1.33;;;;;;;25.78;55.66;100173.81;10476959;28;20320;-60
2023/08/16 11:38:52;;;;;;;1.88;1.20;;;;;;;25.86;54.68;100179.94;10476604;28;20049;-60
2023/08/16 11:44:01;;;;;;;2.97;1.38;;;;;;;25.72;53.40;100170.03;10476038;28;20058;-60
2023/08/16 11:49:03;;;;;;;3.25;1.60;;;;;;;25.78;53.73;100174.66;10476349;28;20107;-60
2023/08/16 11:54:07;;;;;;;2.80;1.30;;;;;;;25.99;53.56;100176.66;10457989;28;20436;-60
2023/08/16 11:59:10;;;;;;;3.15;1.60;;;;;;;26.25;52.26;100160.91;10475798;28;20057;-60
2023/08/16 12:04:12;;;;;;;3.85;1.27;;;;;;;26.62;51.56;100168.84;10476577;28;20121;-60
2023/08/16 12:09:19;;;;;;;2.67;1.25;;;;;;;26.64;50.68;100160.59;10457539;28;20059;-60
2023/08/16 12:14:21;;;;;;;1.90;1.30;;;;;;;26.69;50.52;100163.53;10475807;28;20036;-60
2023/08/16 12:19:23;;;;;;;2.40;1.40;;;;;;;26.88;50.28;100152.19;10475349;28;20485;-60
2023/08/16 12:24:25;;;;;;;2.22;1.27;;;;;;;27.07;49.83;100139.97;10475500;28;20048;-60
2023/08/16 12:29:27;;;;;;;2.78;1.50;;;;;;;26.76;50.60;100142.97;10456915;28;20094;-60
2023/08/16 12:34:29;;;;;;;2.35;1.40;;;;;;;26.68;49.72;100140.41;10475356;28;20083;-60
2023/08/16 12:39:31;;;;;;;2.67;1.40;;;;;;;27.10;49.25;100127.00;10475686;28;20041;-60
2023/08/16 12:44:33;;;;;;;2.22;1.30;;;;;;;27.04;48.66;100108.97;10475233;28;20058;-60
2023/08/16 12:49:35;;;;;;;2.63;1.30;;;;;;;27.18;48.47;100110.78;10474845;28;20360;-60
2023/08/16 12:54:37;;;;;;;2.33;1.20;;;;;;;27.23;48.98;100112.88;10455769;28;20037;-60
2023/08/16 12:59:39;;;;;;;2.58;1.13;;;;;;;27.16;48.73;100106.63;10475061;28;20056;-60
2023/08/16 13:04:52;;;;;;;3.58;1.52;;;;;;;27.24;48.73;100098.44;10474842;28;20139;-60
2023/08/16 13:09:57;;;;;;;3.22;1.50;;;;;;;27.27;48.93;100098.03;10475033;28;20496;-60
2023/08/16 13:15:04;;;;;;;1.95;1.25;;;;;;;27.16;48.57;100096.72;10497100;28;20045;-60
2023/08/16 13:20:09;;;;;;;2.05;1.20;;;;;;;27.58;48.64;100089.59;10483234;28;20044;-61
2023/08/16 13:25:24;;;;;;;3.65;1.50;;;;;;;27.95;48.07;100091.91;10482086;28;20355;-59
2023/08/16 13:30:29;;;;;;;2.13;1.40;;;;;;;28.32;46.93;100088.75;10496986;28;20072;-59
2023/08/16 13:35:35;;;;;;;2.15;1.40;;;;;;;28.34;46.77;100091.25;10481523;28;20039;-59
2023/08/16 13:40:51;;;;;;;2.50;1.48;;;;;;;28.46;46.20;100086.94;10481255;28;20048;-59
2023/08/16 13:45:54;;;;;;;3.78;1.33;;;;;;;28.67;45.86;100082.22;10481191;28;20045;-59
2023/08/16 13:50:56;;;;;;;1.75;1.23;;;;;;;28.11;46.72;100081.63;10481287;28;20076;-60
2023/08/16 13:56:00;;;;;;;2.80;1.40;;;;;;;27.77;46.94;100078.97;10480696;28;20464;-60
2023/08/16 14:01:03;;;;;;;2.53;1.52;;;;;;;28.11;46.92;100070.03;10480959;28;20125;-59
2023/08/16 14:06:05;;;;;;;2.00;1.20;;;;;;;28.35;46.37;100069.53;10480197;28;20094;-60
2023/08/16 14:11:07;;;;;;;2.67;1.27;;;;;;;28.32;46.62;100067.22;10461905;28;20050;-59
2023/08/16 14:16:09;;;;;;;5.38;1.40;;;;;;;27.96;47.22;100059.44;10480262;28;20133;-60
2023/08/16 14:21:11;;;;;;;2.33;1.33;;;;;;;27.83;47.04;100045.13;10479806;28;20057;-60
2023/08/16 14:26:18;;;;;;;2.75;1.40;;;;;;;27.70;47.16;100043.16;10479442;28;20439;-60
2023/08/16 14:31:22;;;;;;;;;;;;;;;27.74;47.24;100033.69;10480532;28;20327;-59
2023/08/16 14:36:24;;;;;;;1.52;1.10;;;;;;;28.10;46.94;100031.56;10479530;28;19920;-59
2023/08/16 14:41:26;;;;;;;3.85;1.42;;;;;;;28.24;47.43;100019.81;10479139;28;20043;-60
2023/08/16 14:46:29;;;;;;;2.25;1.30;;;;;;;27.87;47.08;100027.56;10459932;28;20048;-59
2023/08/16 14:51:31;;;;;;;1.95;1.20;;;;;;;27.83;48.00;100019.03;10479370;28;20138;-59
2023/08/16 14:56:33;;;;;;;2.35;1.48;;;;;;;27.91;47.42;100020.75;10479018;28;20388;-59
2023/08/16 15:01:35;;;;;;;2.25;1.33;;;;;;;27.94;47.20;100021.16;10478054;28;20109;-59
2023/08/16 15:06:37;;;;;;;2.50;1.48;;;;;;;27.88;47.87;100026.50;10478055;28;20040;-59
2023/08/16 15:11:39;;;;;;;3.33;1.30;;;;;;;28.20;47.11;100028.47;10478229;28;20064;-59
2023/08/16 15:16:41;;;;;;;2.70;1.45;;;;;;;28.02;47.71;100030.91;10477040;28;20339;-59
2023/08/16 15:21:43;;;;;;;2.88;1.35;;;;;;;28.27;47.47;100018.56;10477427;28;20051;-59
2023/08/16 15:26:49;;;;;;;1.95;1.38;;;;;;;28.37;47.00;100013.66;10477016;28;20143;-59
2023/08/16 15:31:51;;;;;;;2.13;1.45;;;;;;;28.30;46.82;100009.31;10475750;28;20040;-59
2023/08/16 15:36:53;;;;;;;2.95;1.40;;;;;;;28.26;46.93;100006.16;10458295;28;20048;-59
2023/08/16 15:41:56;;;;;;;3.08;1.40;;;;;;;27.84;47.38;100012.66;10476378;28;20121;-59
2023/08/16 15:46:58;;;;;;;2.25;1.38;;;;;;;27.88;47.92;100005.00;10476430;28;20044;-59
2023/08/16 15:52:00;;;;;;;2.25;1.35;;;;;;;28.04;47.28;99977.75;10476606;28;20141;-60
2023/08/16 15:57:04;;;;;;;2.45;1.38;;;;;;;27.97;47.66;99969.66;10442662;28;20040;-60
2023/08/16 16:02:06;;;;;;;2.50;1.42;;;;;;;28.07;47.66;99966.59;10476249;28;20480;-60
2023/08/16 16:07:09;;;;;;;2.15;1.33;;;;;;;28.12;47.48;99964.13;10476112;28;20118;-60
2023/08/16 16:12:11;;;;;;;4.60;1.92;;;;;;;28.18;47.04;99950.69;10476388;28;20102;-59
2023/08/16 16:17:23;;;;;;;3.92;1.27;;;;;;;28.26;46.59;99953.19;10475790;28;20567;-60
2023/08/16 16:22:27;;;;;;;2.45;1.55;;;;;;;27.62;47.48;99956.50;10457681;28;20053;-59
2023/08/16 16:27:29;;;;;;;2.22;1.45;;;;;;;27.42;48.11;99961.78;10475678;28;20076;-59
2023/08/16 16:32:31;;;;;;;1.85;1.30;;;;;;;27.11;48.35;99974.78;10475438;28;20135;-59
2023/08/16 16:37:33;;;;;;;3.63;1.50;;;;;;;26.80;49.11;99963.63;10456378;28;20052;-59
2023/08/16 16:42:35;;;;;;;2.10;1.40;;;;;;;26.82;50.02;99972.31;10475630;28;20331;-59
2023/08/16 16:47:38;;;;;;;2.80;1.30;;;;;;;26.86;50.33;99987.84;10479403;28;20513;-59
2023/08/16 16:52:40;;;;;;;3.30;1.33;;;;;;;26.86;50.62;99985.16;10483396;28;20439;-59
2023/08/16 16:57:42;;;;;;;2.72;1.40;;;;;;;26.79;50.45;99976.22;10483225;28;20471;-59
2023/08/16 17:02:44;;;;;;;4.47;1.40;;;;;;;26.74;50.70;99986.72;10481261;28;20047;-60
2023/08/16 17:07:46;;;;;;;2.03;1.30;;;;;;;26.59;50.19;99976.06;10497272;28;20274;-59
2023/08/16 17:12:49;;;;;;;2.17;1.25;;;;;;;26.60;50.24;99961.63;10482122;28;20075;-59
2023/08/16 17:17:51;;;;;;;4.53;1.80;;;;;;;26.38;50.13;99961.81;10481602;28;20058;-59
2023/08/16 17:22:55;;;;;;;2.42;1.25;;;;;;;26.19;50.32;99963.28;10482883;28;20060;-59
2023/08/16 17:27:58;;;;;;;2.42;1.48;;;;;;;26.03;50.55;99966.19;10463636;28;20292;-59
2023/08/16 17:33:00;;;;;;;1.63;1.17;;;;;;;26.09;50.63;99978.84;10481837;28;20516;-59
2023/08/16 17:38:02;;;;;;;2.88;1.52;;;;;;;26.08;50.80;99985.22;10481177;28;20052;-60
2023/08/16 17:43:05;;;;;;;2.17;1.20;;;;;;;25.99;51.16;99982.84;10481637;28;20086;-59
2023/08/16 17:48:07;;;;;;;5.43;1.30;;;;;;;25.95;51.25;99997.63;10496219;28;20064;-58
2023/08/16 17:53:09;;;;;;;3.17;1.38;;;;;;;25.86;52.25;100058.50;10462851;28;20171;-58
2023/08/16 17:58:12;;;;;;;2.47;0.80;;;;;;;24.72;51.75;100167.66;10480680;28;20067;-61
2023/08/16 18:03:14;;;;;;;5.57;1.00;;;;;;;22.64;57.78;100209.56;10462986;28;20537;-59
2023/08/16 18:08:16;;;;;;;2.63;0.93;;;;;;;21.17;61.69;100152.06;10480361;28;20891;-61
2023/08/16 18:13:20;;;;;;;2.42;0.90;;;;;;;20.34;62.26;100119.69;10480439;28;20139;-59
2023/08/16 18:18:25;;;;;;;2.40;1.10;;;;;;;20.16;63.85;100135.56;10479458;28;20159;-60
2023/08/16 18:23:28;;;;;;;2.47;1.08;;;;;;;19.98;64.00;100124.03;10478609;28;20413;-59
2023/08/16 18:28:30;;;;;;;1.95;0.95;;;;;;;19.92;64.06;100098.09;10476617;28;20149;-59
2023/08/16 18:33:32;;;;;;;4.25;1.13;;;;;;;19.80;64.33;100068.22;10479297;28;20141;-59
2023/08/16 18:38:35;;;;;;;3.45;0.68;;;;;;;19.67;64.82;100035.03;10476570;28;20048;-59
2023/08/16 18:43:38;;;;;;;2.72;1.05;;;;;;;19.65;65.27;100043.13;10477421;28;20394;-59
2023/08/16 18:48:40;;;;;;;2.85;1.00;;;;;;;19.76;65.09;100081.94;10477639;28;20132;-59
2023/08/16 18:53:42;;;;;;;2.33;0.80;;;;;;;19.62;65.84;100116.91;10460039;28;20076;-59
2023/08/16 18:58:44;;;;;;;2.55;0.90;;;;;;;19.76;65.64;100117.28;10492136;28;20316;-59
2023/08/16 19:03:46;;;;;;;2.05;0.90;;;;;;;19.55;65.95;100090.09;10478356;28;20044;-59
2023/08/16 19:08:48;;;;;;;1.98;0.88;;;;;;;19.64;66.61;100138.81;10477090;28;20155;-59
2023/08/16 19:13:51;;;;;;;1.92;0.60;;;;;;;19.61;66.52;100163.81;10460199;28;20045;-59
2023/08/16 19:18:55;;;;;;;6.75;1.20;;;;;;;19.56;66.44;100159.91;10476801;28;20350;-59
2023/08/16 19:23:57;;;;;;;2.13;0.90;;;;;;;19.70;66.72;100184.19;10477489;28;20466;-59
2023/08/16 19:28:59;;;;;;;3.85;1.10;;;;;;;19.61;66.96;100218.69;10477099;28;20394;-59
2023/08/16 19:34:01;;;;;;;2.67;0.82;;;;;;;19.31;68.11;100214.41;10477089;28;20072;-59
2023/08/16 19:39:04;;;;;;;2.10;0.98;;;;;;;19.18;67.88;100196.13;10476588;28;20727;-59
2023/08/16 19:44:06;;;;;;;1.60;0.80;;;;;;;19.24;68.40;100169.03;10476598;28;20110;-59
2023/08/16 19:49:08;;;;;;;3.97;0.90;;;;;;;19.38;68.48;100158.00;10477073;28;20044;-59
2023/08/16 19:54:09;;;;;;;2.00;0.90;;;;;;;19.66;68.35;100155.44;10476121;28;20261;-59
2023/08/16 19:59:12;;;;;;;3.42;1.20;;;;;;;19.69;68.26;100141.84;10476554;28;20051;-59
2023/08/16 20:04:13;;;;;;;2.55;1.00;;;;;;;19.62;68.01;100164.66;10475692;28;20167;-59
2023/08/16 20:09:15;;;;;;;2.15;0.98;;;;;;;19.72;68.46;100182.22;10475711;28;20037;-60
2023/08/16 20:14:17;;;;;;;1.83;0.90;;;;;;;19.80;68.92;100203.59;10475372;28;20080;-59
2023/08/16 20:19:19;;;;;;;5.68;2.03;;;;;;;19.55;69.05;100152.94;10476313;28;20142;-59
2023/08/16 20:24:21;;;;;;;4.32;0.95;;;;;;;19.46;69.55;100134.25;10475738;28;20169;-59
2023/08/16 20:29:24;;;;;;;9.82;1.40;;;;;;;19.64;69.49;100152.09;10475558;28;20472;-59
2023/08/16 20:34:27;;;;;;;1.73;0.98;;;;;;;19.71;68.91;100161.97;10475478;28;20048;-59
2023/08/16 20:39:29;;;;;;;1.73;1.05;;;;;;;19.69;68.88;100134.75;10475391;28;20044;-60
2023/08/16 20:44:31;;;;;;;2.35;1.23;;;;;;;19.48;69.14;100114.72;10474871;28;20139;-60
2023/08/16 20:49:33;;;;;;;4.45;1.40;;;;;;;19.66;69.21;100116.47;10458069;28;20341;-60
2023/08/16 20:54:35;;;;;;;2.58;1.10;;;;;;;19.62;69.56;100107.13;10457461;28;20546;-60
2023/08/16 20:59:37;;;;;;;4.35;1.80;;;;;;;19.69;69.52;100126.78;10475096;28;20086;-60
2023/08/16 21:04:40;;;;;;;2.65;0.95;;;;;;;19.53;69.46;100137.16;10490794;28;20044;-60
2023/08/16 21:09:42;;;;;;;3.97;0.90;;;;;;;19.51;69.17;100130.31;10489813;28;20416;-59
2023/08/16 21:14:46;;;;;;;1.83;0.75;;;;;;;19.32;69.40;100129.38;10475205;28;20032;-59
2023/08/16 21:19:48;;;;;;;1.60;0.95;;;;;;;19.21;69.84;100105.69;10474791;28;20083;-59
2023/08/16 21:24:51;;;;;;;4.63;1.33;;;;;;;19.12;70.18;100090.63;10455802;28;20063;-58
2023/08/16 21:29:55;;;;;;;1.45;1.02;;;;;;;19.13;70.02;100071.09;10474259;28;20041;-59
2023/08/16 21:34:57;;;;;;;2.08;1.02;;;;;;;19.13;70.48;100059.66;10480600;28;20520;-60
2023/08/16 21:39:59;;;;;;;3.00;1.02;;;;;;;19.07;70.88;100052.28;10482146;28;20775;-58
2023/08/16 21:45:01;;;;;;;2.40;1.13;;;;;;;19.13;70.75;100068.44;10482183;28;20080;-58
2023/08/16 21:50:03;;;;;;;2.22;1.10;;;;;;;19.14;70.96;100075.41;10481128;28;20144;-58
2023/08/16 21:55:05;;;;;;;2.00;1.25;;;;;;;19.24;71.06;100117.81;10462306;28;20127;-58
2023/08/16 22:00:08;;;;;;;3.47;1.42;;;;;;;19.15;71.13;100098.31;10481429;28;20812;-58
2023/08/16 22:05:10;;;;;;;2.25;1.20;;;;;;;19.30;71.01;100083.59;10480997;28;20346;-59
2023/08/16 22:10:12;;;;;;;3.53;1.30;;;;;;;19.38;70.43;100089.03;10480726;28;20052;-59
2023/08/16 22:15:14;;;;;;;8.82;1.30;;;;;;;19.52;70.74;100122.25;10480422;28;20045;-59
2023/08/16 22:20:17;;;;;;;3.47;1.40;;;;;;;19.58;70.71;100111.06;10461669;28;20143;-59
2023/08/16 22:25:19;;;;;;;2.45;1.27;;;;;;;19.63;70.47;100107.94;10477960;28;20052;-60
2023/08/16 22:30:23;;;;;;;2.65;1.05;;;;;;;19.62;70.62;100107.13;10479409;28;20060;-59
2023/08/16 22:35:25;;;;;;;1.80;1.05;;;;;;;19.67;70.21;100106.66;10479772;28;20491;-59
2023/08/16 22:40:27;;;;;;;1.50;1.00;;;;;;;19.55;69.79;100081.28;10478812;28;20443;-60
2023/08/16 22:45:29;;;;;;;1.58;1.02;;;;;;;19.26;70.49;100074.25;10479207;28;20094;-59
2023/08/16 22:50:31;;;;;;;3.83;1.38;;;;;;;19.07;70.80;100063.72;10478707;28;20492;-60
2023/08/16 22:55:33;;;;;;;1.65;0.93;;;;;;;19.34;70.45;100066.44;10478389;28;20047;-59
2023/08/16 23:00:35;;;;;;;1.73;1.13;;;;;;;19.13;70.83;100054.34;10478331;28;20500;-59
2023/08/16 23:05:37;;;;;;;2.60;1.10;;;;;;;19.00;70.90;100059.91;10477991;28;20063;-59
2023/08/16 23:10:41;;;;;;;3.22;1.80;;;;;;;18.93;71.23;100057.97;10477736;28;20577;-59